Map

Track Data

SID SEASON NUMBER BASIN SUBBASIN NAME ISO_TIME NATURE LAT LON WMO_WIND WMO_PRES WMO_AGENCY TRACK_TYPE DIST2LAND LANDFALL IFLAG USA_AGENCY USA_ATCF_ID USA_LAT USA_LON USA_RECORD USA_STATUS USA_WIND USA_PRES USA_SSHS USA_R34_NE USA_R34_SE USA_R34_SW USA_R34_NW USA_R50_NE USA_R50_SE USA_R50_SW USA_R50_NW USA_R64_NE USA_R64_SE USA_R64_SW USA_R64_NW USA_POCI USA_ROCI USA_RMW USA_EYE TOKYO_LAT TOKYO_LON TOKYO_GRADE TOKYO_WIND TOKYO_PRES TOKYO_R50_DIR TOKYO_R50_LONG TOKYO_R50_SHORT TOKYO_R30_DIR TOKYO_R30_LONG TOKYO_R30_SHORT TOKYO_LAND CMA_LAT CMA_LON CMA_CAT CMA_WIND CMA_PRES HKO_LAT HKO_LON HKO_CAT HKO_WIND HKO_PRES NEWDELHI_LAT NEWDELHI_LON NEWDELHI_GRADE NEWDELHI_WIND NEWDELHI_PRES NEWDELHI_CI NEWDELHI_DP NEWDELHI_POCI REUNION_LAT REUNION_LON REUNION_TYPE REUNION_WIND REUNION_PRES REUNION_TNUM REUNION_CI REUNION_RMW REUNION_R34_NE REUNION_R34_SE REUNION_R34_SW REUNION_R34_NW REUNION_R50_NE REUNION_R50_SE REUNION_R50_SW REUNION_R50_NW REUNION_R64_NE REUNION_R64_SE REUNION_R64_SW REUNION_R64_NW BOM_LAT BOM_LON BOM_TYPE BOM_WIND BOM_PRES BOM_TNUM BOM_CI BOM_RMW BOM_R34_NE BOM_R34_SE BOM_R34_SW BOM_R34_NW BOM_R50_NE BOM_R50_SE BOM_R50_SW BOM_R50_NW BOM_R64_NE BOM_R64_SE BOM_R64_SW BOM_R64_NW BOM_ROCI BOM_POCI BOM_EYE BOM_POS_METHOD BOM_PRES_METHOD NADI_LAT NADI_LON NADI_CAT NADI_WIND NADI_PRES WELLINGTON_LAT WELLINGTON_LON WELLINGTON_WIND WELLINGTON_PRES DS824_LAT DS824_LON DS824_STAGE DS824_WIND DS824_PRES TD9636_LAT TD9636_LON TD9636_STAGE TD9636_WIND TD9636_PRES TD9635_LAT TD9635_LON TD9635_WIND TD9635_PRES TD9635_ROCI NEUMANN_LAT NEUMANN_LON NEUMANN_CLASS NEUMANN_WIND NEUMANN_PRES MLC_LAT MLC_LON MLC_CLASS MLC_WIND MLC_PRES USA_GUST BOM_GUST BOM_GUST_PER REUNION_GUST REUNION_GUST_PER USA_SEAHGT USA_SEARAD_NE USA_SEARAD_SE USA_SEARAD_SW USA_SEARAD_NW STORM_SPEED STORM_DIR
2005351S09084 2006 114 SI MM NOT_NAMED 2005-12-17 00:00:00 TS -9.00000 83.7000 main 1704 1678 O___________O_ jtwc_sh SH042006 -9.00000 83.7000 DB 15 1006 -3 -9.00000 83.7000 TC 15 8 46
2005351S09084 2006 114 SI MM NOT_NAMED 2005-12-17 03:00:00 TS -8.73251 83.9801 main 1678 1662 P___________P_ SH042006 -8.73251 83.9801 DB 17 1005 -3 -8.73251 83.9801 TC 17 8 50
2005351S09084 2006 114 SI MM NOT_NAMED 2005-12-17 06:00:00 TS -8.50000 84.3000 main 1665 1651 O___________O_ jtwc_sh SH042006 -8.50000 84.3000 DB 20 1004 -3 -8.50000 84.3000 TC 20 8 60
2005351S09084 2006 114 SI MM NOT_NAMED 2005-12-17 09:00:00 TS -8.32750 84.6850 main 1654 1650 P___________P_ SH042006 -8.32750 84.6850 DB 22 1003 -3 -8.32750 84.6850 TC 22 8 69
2005351S09084 2006 114 SI MM NOT_NAMED 2005-12-17 12:00:00 TS -8.20000 85.1000 main 1657 1645 O___________O_ jtwc_sh SH042006 -8.20000 85.1000 TD 25 1002 -1 -8.20000 85.1000 TC 25 9 73
2005351S09084 2006 114 SI MM NOT_NAMED 2005-12-17 15:00:00 TS -8.08498 85.5075 main 1645 1601 P___________P_ SH042006 -8.08498 85.5075 TD 25 1002 -1 -8.08498 85.5075 TC 25 8 76
2005351S09084 2006 114 SI MM NOT_NAMED 2005-12-17 18:00:00 TS -8.00000 85.9000 main 1601 1556 O___________O_ jtwc_sh SH042006 -8.00000 85.9000 TD 25 1002 -1 -8.00000 85.9000 TC 25 8 78
2005351S09084 2006 114 SI MM NOT_NAMED 2005-12-17 21:00:00 TS -7.92001 86.2875 main 1556 1527 P___________P_ SH042006 -7.92001 86.2875 TD 25 1002 -1 -7.92001 86.2875 TC 25 7 82
2005351S09084 2006 114 SI MM NOT_NAMED 2005-12-18 00:00:00 TS -7.90000 86.6000 main 1527 1508 O___________O_ jtwc_sh SH042006 -7.90000 86.6000 TD 25 1002 -1 -7.90000 86.6000 TC 25 5 95
2005351S09084 2006 114 SI MM NOT_NAMED 2005-12-18 03:00:00 TS -7.96245 86.7875 main 1514 1504 P___________P_ SH042006 -7.96245 86.7875 TD 25 1002 -1 -7.96245 86.7875 TC 25 4 124
2005351S09084 2006 114 SI MM NOT_NAMED 2005-12-18 06:00:00 TS -8.10000 86.9000 main 1510 1506 O___________O_ jtwc_sh SH042006 -8.10000 86.9000 TD 25 1002 -1 -8.10000 86.9000 TC 25 4 145
2005351S09084 2006 114 SI MM NOT_NAMED 2005-12-18 09:00:00 TS -8.28500 87.0150 main 1511 1507 P___________P_ SH042006 -8.28500 87.0150 TD 25 1002 -1 -8.28500 87.0150 TC 25 4 154
2005351S09084 2006 114 SI MM NOT_NAMED 2005-12-18 12:00:00 TS -8.50000 87.1000 main 1513 1513 O___________O_ jtwc_sh SH042006 -8.50000 87.1000 TD 25 1002 -1 -8.50000 87.1000 TC 25 5 164
2005351S09084 2006 114 SI MM NOT_NAMED 2005-12-18 15:00:00 TS -8.72249 87.1425 main 1524 1520 P___________P_ SH042006 -8.72249 87.1425 TD 25 1002 -1 -8.72249 87.1425 TC 25 4 167
2005351S09084 2006 114 SI MM NOT_NAMED 2005-12-18 18:00:00 TS -8.90000 87.2000 main 1526 1522 O___________O_ jtwc_sh SH042006 -8.90000 87.2000 TD 25 1002 -1 -8.90000 87.2000 TC 25 3 144
2005351S09084 2006 114 SI MM NOT_NAMED 2005-12-18 21:00:00 TS -8.98751 87.3350 main 1522 1504 P___________P_ SH042006 -8.98751 87.3350 TD 25 1002 -1 -8.98751 87.3350 TC 25 3 109
2005351S09084 2006 114 SI MM NOT_NAMED 2005-12-19 00:00:00 TS -9.00000 87.5000 main 1504 1495 O___________O_ jtwc_sh SH042006 -9.00000 87.5000 TD 25 1002 -1 -9.00000 87.5000 TC 25 3 87
2005351S09084 2006 114 SI MM NOT_NAMED 2005-12-19 03:00:00 TS -8.97250 87.6575 main 1485 1470 P___________P_ SH042006 -8.97250 87.6575 TD 25 1002 -1 -8.97250 87.6575 TC 25 3 71
2005351S09084 2006 114 SI MM NOT_NAMED 2005-12-19 06:00:00 TS -8.90000 87.8000 main 1470 1455 O___________O_ jtwc_sh SH042006 -8.90000 87.8000 TD 25 1002 -1 -8.90000 87.8000 TC 25 3 56
2005351S09084 2006 114 SI MM NOT_NAMED 2005-12-19 09:00:00 TS -8.80749 87.9075 main 1455 1439 P___________P_ SH042006 -8.80749 87.9075 TD 25 1002 -1 -8.80749 87.9075 TC 25 3 45
2005351S09084 2006 114 SI MM NOT_NAMED 2005-12-19 12:00:00 TS -8.70000 88.0000 main 1439 1424 O___________O_ jtwc_sh SH042006 -8.70000 88.0000 TD 25 1002 -1 -8.70000 88.0000 TC 25 3 41
2005351S09084 2006 114 SI MM NOT_NAMED 2005-12-19 15:00:00 TS -8.59998 88.0850 main 1424 1409 P___________P_ SH042006 -8.59998 88.0850 TD 25 1002 -1 -8.59998 88.0850 TC 25 3 45
2005351S09084 2006 114 SI MM NOT_NAMED 2005-12-19 18:00:00 TS -8.50000 88.2000 main 1409 1384 O___________O_ jtwc_sh SH042006 -8.50000 88.2000 TD 25 1002 -1 -8.50000 88.2000 TC 25 4 56
2005351S09084 2006 114 SI MM NOT_NAMED 2005-12-19 21:00:00 TS -8.40001 88.3850 main 1384 1360 P___________P_ SH042006 -8.40001 88.3850 TD 25 1002 -1 -8.40001 88.3850 TC 25 4 63
2005351S09084 2006 114 SI MM NOT_NAMED 2005-12-20 00:00:00 TS -8.30000 88.6000 main 1360 1335 O___________O_ jtwc_sh SH042006 -8.30000 88.6000 TD 25 1002 -1 -8.30000 88.6000 TC 25 4 63
2005351S09084 2006 114 SI MM NOT_NAMED 2005-12-20 03:00:00 TS -8.19995 88.7775 main 1335 1310 P___________P_ SH042006 -8.19995 88.7775 TD 25 1002 -1 -8.19995 88.7775 TC 25 4 63
2005351S09084 2006 114 SI MM NOT_NAMED 2005-12-20 06:00:00 TS -8.10000 89.0000 main 1310 1277 O___________O_ jtwc_sh SH042006 -8.10000 89.0000 TD 25 1002 -1 -8.10000 89.0000 TC 25 6 68
2005351S09084 2006 114 SI MM NOT_NAMED 2005-12-20 09:00:00 TS -7.97750 89.3201 main 1277 1234 P___________P_ SH042006 -7.97750 89.3201 TD 25 1002 -1 -7.97750 89.3201 TC 25 7 74
2005351S09084 2006 114 SI MM NOT_NAMED 2005-12-20 12:00:00 TS -7.90000 89.7000 main 1234 1197 O___________O_ jtwc_sh SH042006 -7.90000 89.7000 TD 25 1002 -1 -7.90000 89.7000 TC 25 8 86
2005351S09084 2006 114 SI WA NOT_NAMED 2005-12-20 15:00:00 TS -7.92000 90.1000 main 1197 1168 P___________P_ SH042006 -7.92000 90.1000 TD 25 1002 -1 -7.92000 90.1000 TC 25 8 97
2005351S09084 2006 114 SI WA NOT_NAMED 2005-12-20 18:00:00 TS -8.00000 90.5000 main 1168 1140 O___________O_ jtwc_sh SH042006 -8.00000 90.5000 TD 25 1002 -1 -8.00000 90.5000 TC 25 8 101
2005351S09084 2006 114 SI WA NOT_NAMED 2005-12-20 21:00:00 TS -8.06999 90.8725 main 1140 1121 P___________P_ SH042006 -8.06999 90.8725 TD 25 1002 -1 -8.06999 90.8725 TC 25 7 106
2005351S09084 2006 114 SI WA NOT_NAMED 2005-12-21 00:00:00 TS -8.20000 91.2000 main 1121 1111 O___________O_ jtwc_sh SH042006 -8.20000 91.2000 TD 25 1002 -1 -8.20000 91.2000 TC 25 7 122
2005351S09084 2006 114 SI WA NOT_NAMED 2005-12-21 03:00:00 TS -8.44999 91.4949 main 1111 1110 P___________P_ SH042006 -8.44999 91.4949 TD 25 1002 -1 -8.44999 91.4949 TC 25 7 135
2005351S09084 2006 114 SI WA NOT_NAMED 2005-12-21 06:00:00 TS -8.70000 91.7000 main 1118 1118 O___________O_ jtwc_sh SH042006 -8.70000 91.7000 TD 25 1002 -1 -8.70000 91.7000 TC 25 5 142
2005351S09084 2006 114 SI WA NOT_NAMED 2005-12-21 09:00:00 TS -8.82247 91.7876 main 1118 1118 P___________P_ SH042006 -8.82247 91.7876 TD 25 1002 -1 -8.82247 91.7876 TC 25 2 153
2005351S09084 2006 114 SI WA NOT_NAMED 2005-12-21 12:00:00 TS -8.90000 91.8000 main 1126 1126 O___________O_ jtwc_sh SH042006 -8.90000 91.8000 TD 25 1002 -1 -8.90000 91.8000 TC 25 2 0
2005351S09084 2006 114 SI WA NOT_NAMED 2005-12-21 15:00:00 TS -8.99250 91.8075 main 1134 1134 P___________P_ SH042006 -8.99250 91.8075 TD 25 1002 -1 -8.99250 91.8075 TC 25 2 172
2005351S09084 2006 114 SI WA NOT_NAMED 2005-12-21 18:00:00 TS -9.10000 91.8000 main 1142 1142 O___________O_ jtwc_sh SH042006 -9.10000 91.8000 TD 25 1002 -1 -9.10000 91.8000 TC 25 3 0
2005351S09084 2006 114 SI WA NOT_NAMED 2005-12-21 21:00:00 TS -9.25000 91.8150 main 1150 1150 P___________P_ SH042006 -9.25000 91.8150 TD 25 1002 -1 -9.25000 91.8150 TC 25 3 0
2005351S09084 2006 114 SI WA NOT_NAMED 2005-12-22 00:00:00 TS -9.40000 91.8000 main 1167 1167 O___________O_ jtwc_sh SH042006 -9.40000 91.8000 TD 25 1002 -1 -9.40000 91.8000 TC 25 3 198
2005351S09084 2006 114 SI WA NOT_NAMED 2005-12-22 03:00:00 TS -9.50750 91.7225 main 1182 1182 P___________P_ SH042006 -9.50750 91.7225 TD 25 1002 -1 -9.50750 91.7225 TC 25 3 225
2005351S09084 2006 114 SI WA NOT_NAMED 2005-12-22 06:00:00 TS -9.60000 91.6000 main 1198 1198 O___________O_ jtwc_sh SH042006 -9.60000 91.6000 TD 25 1002 -1 -9.60000 91.6000 TC 25 3 230
2005351S09084 2006 114 SI WA NOT_NAMED 2005-12-22 09:00:00 TS -9.69994 91.4875 main 1214 1214 P___________P_ SH042006 -9.69994 91.4875 TD 25 1002 -1 -9.69994 91.4875 TC 25 4 236
2005351S09084 2006 114 SI WA NOT_NAMED 2005-12-22 12:00:00 TS -9.80000 91.3000 main 1237 1237 O___________O_ jtwc_sh SH042006 -9.80000 91.3000 TD 25 1002 -1 -9.80000 91.3000 TC 25 5 247
2005351S09084 2006 114 SI WA NOT_NAMED 2005-12-22 15:00:00 TS -9.90751 90.9875 main 1268 1268 P___________P_ SH042006 -9.90751 90.9875 TD 25 1002 -1 -9.90751 90.9875 TC 25 7 254
2005351S09084 2006 114 SI WA NOT_NAMED 2005-12-22 18:00:00 TS -10.0000 90.6000 main 1306 1306 O___________O_ jtwc_sh SH042006 -10.0000 90.6000 TD 25 1002 -1 -10.0000 90.6000 TC 25 8 260
2005351S09084 2006 114 SI WA NOT_NAMED 2005-12-22 21:00:00 TS -10.0424 90.2299 main 1338 1338 P___________P_ SH042006 -10.0424 90.2299 TD 25 1002 -1 -10.0424 90.2299 TC 25 8 263
2005351S09084 2006 114 SI MM NOT_NAMED 2005-12-23 00:00:00 TS -10.1000 89.8000 main 1378 1378 O___________O_ jtwc_sh SH042006 -10.1000 89.8000 TD 25 1002 -1 -10.1000 89.8000 TC 25 10 259
2005351S09084 2006 114 SI MM NOT_NAMED 2005-12-23 03:00:00 TS -10.2351 89.2501 main 1426 1426 P___________P_ SH042006 -10.2351 89.2501 TD 25 1002 -1 -10.2351 89.2501 TC 25 11 255
2005351S09084 2006 114 SI MM NOT_NAMED 2005-12-23 06:00:00 TS -10.4000 88.7000 main 1490 1490 O___________O_ jtwc_sh SH042006 -10.4000 88.7000 TD 25 1002 -1 1008 180 50 -10.4000 88.7000 TC 25 10 252
2005351S09084 2006 114 SI MM NOT_NAMED 2005-12-23 09:00:00 TS -10.5424 88.2774 main 1531 1531 P___________P_ SH042006 -10.5424 88.2774 TD 25 1002 -1 1008 180 50 -10.5424 88.2774 TC 25 8 249
2005351S09084 2006 114 SI MM NOT_NAMED 2005-12-23 12:00:00 TS -10.7000 87.9000 main 1579 1579 O___________O_ jtwc_sh SH042006 -10.7000 87.9000 TD 25 1002 -1 1008 180 50 -10.7000 87.9000 TC 25 8 246
2005351S09084 2006 114 SI MM NOT_NAMED 2005-12-23 15:00:00 TS -10.8699 87.5148 main 1627 1627 P___________P_ SH042006 -10.8699 87.5148 TD 27 1001 -1 1006 150 50 -10.8699 87.5148 TC 27 9 243
2005351S09084 2006 114 SI MM NOT_NAMED 2005-12-23 18:00:00 TS -11.1000 87.1000 main 1675 1675 O___________O_ jtwc_sh SH042006 -11.1000 87.1000 TD 30 1000 -1 1004 120 50 -11.1000 87.1000 TC 30 10 238
2005351S09084 2006 114 SI MM NOT_NAMED 2005-12-23 21:00:00 TS -11.4200 86.6224 main 1739 1739 P___________P_ SH042006 -11.4200 86.6224 TD 30 1000 -1 1004 120 50 -11.4200 86.6224 TC 30 12 234
2005351S09084 2006 114 SI MM NOT_NAMED 2005-12-24 00:00:00 TS -11.8000 86.1000 main 1810 1810 O___________O_ jtwc_sh SH042006 -11.8000 86.1000 TD 30 1000 -1 1004 120 50 -11.8000 86.1000 TC 30 13 232
2005351S09084 2006 114 SI MM NOT_NAMED 2005-12-24 03:00:00 TS -12.2224 85.5651 main 1880 1880 P___________P_ SH042006 -12.2224 85.5651 TD 32 998 -1 1006 180 40 -12.2224 85.5651 TC 32 13 233
2005351S09084 2006 114 SI MM NOT_NAMED 2005-12-24 06:00:00 TS -12.6000 85.0000 main 1959 1959 O___________O_ jtwc_sh SH042006 -12.6000 85.0000 TS 35 997 0 1008 240 30 -12.6000 85.0000 TC 35 13 240
2005351S09084 2006 114 SI MM NOT_NAMED 2005-12-24 09:00:00 TS -12.8747 84.4301 main 2031 2031 P___________P_ SH042006 -12.8747 84.4301 TS 35 997 0 1008 240 30 -12.8747 84.4301 TC 35 12 251
2005351S09084 2006 114 SI MM NOT_NAMED 2005-12-24 12:00:00 TS -13.0000 83.8000 main 2090 2090 O___________O_ jtwc_sh SH042006 -13.0000 83.8000 TS 35 997 0 1008 240 30 -13.0000 83.8000 TC 35 13 268
2005351S09084 2006 114 SI MM NOT_NAMED 2005-12-24 15:00:00 TS -12.9225 83.0720 main 2124 2103 P___________P_ SH042006 -12.9225 83.0720 TS 35 997 0 1008 165 30 -12.9225 83.0720 TC 35 15 278
2005351S09084 2006 114 SI MM NOT_NAMED 2005-12-24 18:00:00 TS -12.8000 82.3000 main 2103 2098 O___________O_ jtwc_sh SH042006 -12.8000 82.3000 TS 35 997 0 1009 90 30 -12.8000 82.3000 TC 35 15 274
2005351S09084 2006 114 SI MM NOT_NAMED 2005-12-24 21:00:00 TS -12.8125 81.5276 main 2097 2096 P___________P_ SH042006 -12.8125 81.5276 TS 35 997 0 -12.8125 81.5276 TC 35 15 266
2005351S09084 2006 114 SI MM NOT_NAMED 2005-12-25 00:00:00 TS -12.9000 80.8000 main 2106 2106 O___________O_ jtwc_sh SH042006 -12.9000 80.8000 TS 35 997 0 -12.9000 80.8000 TC 35 13 260
2005351S09084 2006 114 SI MM NOT_NAMED 2005-12-25 03:00:00 TS -13.0346 80.1850 main 2118 2118 P___________P_ SH042006 -13.0346 80.1850 TS 32 998 -1 -13.0346 80.1850 TC 32 12 256
2005351S09084 2006 114 SI MM NOT_NAMED 2005-12-25 06:00:00 TS -13.2000 79.6000 main 2142 2142 O___________O_ jtwc_sh SH042006 -13.2000 79.6000 TD 30 1000 -1 1008 240 30 -13.2000 79.6000 TC 30 12 254
2005351S09084 2006 114 SI MM NOT_NAMED 2005-12-25 09:00:00 TS -13.3723 78.9651 main 2169 2169 P___________P_ SH042006 -13.3723 78.9651 TD 30 1000 -1 1008 240 32 -13.3723 78.9651 TC 30 13 257
2005351S09084 2006 114 SI MM NOT_NAMED 2005-12-25 12:00:00 TS -13.5000 78.3000 main 2188 2188 O___________O_ jtwc_sh SH042006 -13.5000 78.3000 TD 30 1000 -1 1008 240 35 -13.5000 78.3000 TC 30 13 263
2005351S09084 2006 114 SI MM NOT_NAMED 2005-12-25 15:00:00 TS -13.5299 77.6074 main 2198 2168 P___________P_ SH042006 -13.5299 77.6074 TD 27 1001 -1 1008 210 35 -13.5299 77.6074 TC 27 14 270
2005351S09084 2006 114 SI MM NOT_NAMED 2005-12-25 18:00:00 TS -13.5000 76.9000 main 2168 2103 O___________O_ jtwc_sh SH042006 -13.5000 76.9000 TD 25 1002 -1 1008 180 35 -13.5000 76.9000 TC 25 14 275
2005351S09084 2006 114 SI MM NOT_NAMED 2005-12-25 21:00:00 TS -13.4199 76.1922 main 2103 2034 P___________P_ SH042006 -13.4199 76.1922 TD 25 1002 -1 -13.4199 76.1922 TC 25 14 274
2005351S09084 2006 114 SI MM NOT_NAMED 2005-12-26 00:00:00 TS -13.4000 75.5000 main 2034 1965 O___________O_ jtwc_sh SH042006 -13.4000 75.5000 TD 25 1002 -1 -13.4000 75.5000 TC 25 13 264
2005351S09084 2006 114 SI MM NOT_NAMED 2005-12-26 03:00:00 TS -13.5624 74.8203 main 1956 1887 P___________P_ SH042006 -13.5624 74.8203 TD 25 1002 -1 -13.5624 74.8203 TC 25 13 252
2005351S09084 2006 114 SI MM NOT_NAMED 2005-12-26 06:00:00 TS -13.8000 74.2000 main 1887 1829 O___________O_ jtwc_sh SH042006 -13.8000 74.2000 TD 25 1002 -1 -13.8000 74.2000 TC 25 12 247
2005351S09084 2006 114 SI MM NOT_NAMED 2005-12-26 09:00:00 TS -14.0221 73.6925 main 1829 1771 P___________P_ SH042006 -14.0221 73.6925 TD 25 1002 -1 -14.0221 73.6925 TC 25 11 248
2005351S09084 2006 114 SI MM NOT_NAMED 2005-12-26 12:00:00 TS -14.2000 73.2000 main 1771 1707 O___________O_ jtwc_sh SH042006 -14.2000 73.2000 TD 25 1002 -1 -14.2000 73.2000 TC 25 11 257
2005351S09084 2006 114 SI MM NOT_NAMED 2005-12-26 15:00:00 TS -14.2725 72.6148 main 1707 1649 P___________P_ SH042006 -14.2725 72.6148 TD 25 1002 -1 -14.2725 72.6148 TC 25 12 265
2005351S09084 2006 114 SI MM NOT_NAMED 2005-12-26 18:00:00 TS -14.3000 72.0000 main 1649 1591 O___________O_ jtwc_sh SH042006 -14.3000 72.0000 TD 25 1002 -1 -14.3000 72.0000 TC 25 12 268
2005351S09084 2006 114 SI MM NOT_NAMED 2005-12-26 21:00:00 TS -14.3199 71.3923 main 1591 1528 P___________P_ SH042006 -14.3199 71.3923 TD 25 1002 -1 -14.3199 71.3923 TC 25 12 265
2005351S09084 2006 114 SI MM NOT_NAMED 2005-12-27 00:00:00 TS -14.4000 70.8000 main 1528 1470 O___________O_ jtwc_sh SH042006 -14.4000 70.8000 TD 25 1003 -1 1008 180 50 -14.4000 70.8000 TC 25 12 255
2005351S09084 2006 114 SI MM NOT_NAMED 2005-12-27 03:00:00 TS -14.6198 70.2426 main 1461 1398 P___________P_ SH042006 -14.6198 70.2426 TD 25 1002 -1 -14.6198 70.2426 TC 25 12 245
2005351S09084 2006 114 SI MM NOT_NAMED 2005-12-27 06:00:00 TS -14.9000 69.7000 main 1398 1340 O___________O_ jtwc_sh SH042006 -14.9000 69.7000 TD 25 1002 -1 -14.9000 69.7000 TC 25 12 243
2005351S09084 2006 114 SI MM NOT_NAMED 2005-12-27 09:00:00 TS -15.1499 69.1499 main 1330 1267 P___________P_ SH042006 -15.1499 69.1499 TD 25 1002 -1 -15.1499 69.1499 TC 25 12 245
2005351S09084 2006 114 SI MM NOT_NAMED 2005-12-27 12:00:00 TS -15.4000 68.6000 main 1267 1209 O___________O_ jtwc_sh SH042006 -15.4000 68.6000 TD 25 1002 -1 -15.4000 68.6000 TC 25 12 245
2005351S09084 2006 114 SI MM NOT_NAMED 2005-12-27 15:00:00 TS -15.6499 68.0499 main 1199 1137 P___________P_ SH042006 -15.6499 68.0499 TD 25 1002 -1 -15.6499 68.0499 TC 25 12 245
2005351S09084 2006 114 SI MM NOT_NAMED 2005-12-27 18:00:00 TS -15.9000 67.5000 main 1137 1079 O___________O_ jtwc_sh SH042006 -15.9000 67.5000 TD 25 1002 -1 -15.9000 67.5000 TC 25 12 245
2005351S09084 2006 114 SI MM NOT_NAMED 2005-12-27 21:00:00 TS -16.1348 66.9572 main 1079 1006 P___________P_ SH042006 -16.1348 66.9572 TD 25 1002 -1 -16.1348 66.9572 TC 25 12 245
2005351S09084 2006 114 SI MM NOT_NAMED 2005-12-28 00:00:00 TS -16.4000 66.4000 main 1006 934 O___________O_ jtwc_sh SH042006 -16.4000 66.4000 TD 25 1002 -1 -16.4000 66.4000 TC 25 13 241
2005351S09084 2006 114 SI MM NOT_NAMED 2005-12-28 03:00:00 TS -16.7424 65.8075 main 934 857 P___________P_ SH042006 -16.7424 65.8075 TD 25 1002 -1 -16.7424 65.8075 TC 25 13 239
2005351S09084 2006 114 SI MM NOT_NAMED 2005-12-28 06:00:00 TS -17.1000 65.2000 main 857 785 O___________O_ jtwc_sh SH042006 -17.1000 65.2000 TD 25 1002 -1 -17.1000 65.2000 TC 25 13 239
2005351S09084 2006 114 SI MM NOT_NAMED 2005-12-28 09:00:00 TS -17.4147 64.6147 main 785 713 P___________P_ SH042006 -17.4147 64.6147 TD 25 1002 -1 -17.4147 64.6147 TC 25 13 242
2005351S09084 2006 114 SI MM NOT_NAMED 2005-12-28 12:00:00 TS -17.7000 64.0000 main 713 637 O___________O_ jtwc_sh SH042006 -17.7000 64.0000 TD 25 1002 -1 -17.7000 64.0000 TC 25 14 248
2005351S09084 2006 114 SI MM NOT_NAMED 2005-12-28 15:00:00 TS -17.9201 63.2994 main 637 555 P___________P_ SH042006 -17.9201 63.2994 TD 25 1002 -1 -17.9201 63.2994 TC 25 14 249
2005351S09084 2006 114 SI MM NOT_NAMED 2005-12-28 18:00:00 TS -18.2000 62.6000 main 555 479 O___________O_ jtwc_sh SH042006 -18.2000 62.6000 TD 25 1002 -1 -18.2000 62.6000 TC 25 15 241
2005351S09084 2006 114 SI MM NOT_NAMED 2005-12-28 21:00:00 TS -18.6399 61.9550 main 479 396 P___________P_ SH042006 -18.6399 61.9550 TD 25 1002 -1 -18.6399 61.9550 TC 25 15 229
2005351S09084 2006 114 SI MM NOT_NAMED 2005-12-29 00:00:00 TS -19.2000 61.4000 main 396 338 O___________O_ jtwc_sh SH042006 -19.2000 61.4000 TD 25 1002 -1 -19.2000 61.4000 TC 25 15 219
2005351S09084 2006 114 SI MM NOT_NAMED 2005-12-29 03:00:00 TS -19.8123 60.9546 main 338 292 P___________P_ SH042006 -19.8123 60.9546 TD 25 1002 -1 -19.8123 60.9546 TC 25 15 210
2005351S09084 2006 114 SI MM NOT_NAMED 2005-12-29 06:00:00 TS -20.5000 60.6000 main 292 271 O___________O_ jtwc_sh SH042006 -20.5000 60.6000 TD 25 1002 -1 -20.5000 60.6000 TC 25 16 205
2005351S09084 2006 114 SI MM NOT_NAMED 2005-12-29 09:00:00 TS -21.2350 60.2551 main 278 273 P___________P_ SH042006 -21.2350 60.2551 TD 25 1002 -1 -21.2350 60.2551 TC 25 16 200
2005351S09084 2006 114 SI MM NOT_NAMED 2005-12-29 12:00:00 TS -22.0000 60.0000 main 291 291 O___________O_ jtwc_sh SH042006 -22.0000 60.0000 TD 25 1002 -1 -22.0000 60.0000 TC 25 16 193
2005351S09084 2006 114 SI MM NOT_NAMED 2005-12-29 15:00:00 TS -22.7550 59.8649 main 343 343 P___________P_ SH042006 -22.7550 59.8649 TD 25 1002 -1 -22.7550 59.8649 TC 25 15 187
2005351S09084 2006 114 SI MM NOT_NAMED 2005-12-29 18:00:00 TS -23.5000 59.8000 main 399 O___________O_ jtwc_sh SH042006 -23.5000 59.8000 TD 25 1002 -1 -23.5000 59.8000 TC 25 15 185

About IBTrACS Database

This database is a web-friendly format of International Best Track Archive for Climate Stewardship (IBTrACS), a global best track data archive curated by NOAA dating back to 1842.

Updated: 2021-11-26